Kitanomaru — JD2835 — position and weather

sailwx.info

Track history (hours):
 
Tides and Currents Weather Stations Pressure Air Temp Water Temp Dewpoint Dewpoint Depression Visibility Wind Speed Wind Dir Waves Ship Positions

Kitanomaru

Last reported at 2016-Aug-28 11:33 UTC. Time now 2016-Aug-28 12:12 UTC.
Position N 35°36' E 140°07'.

Length 39 m; draft 4 m.

Type: Tug. MMSI: 431000773.

Date/timePositionNaut miles runAvg speedWind from/ knotsBaromVisibWave heightAir tempDewpointWater temp
2016-Aug-28 11:33N 35°36' E 140°07'0 0.0
2016-Aug-28 10:33N 35°36' E 140°07'0 0.0
2016-Aug-28 09:33N 35°36' E 140°07'0 0.0
2016-Aug-28 08:33N 35°36' E 140°07'0 0.0
2016-Aug-28 07:33N 35°36' E 140°07'0 0.0
2016-Aug-28 06:33N 35°36' E 140°07'0 0.0
2016-Aug-28 05:33N 35°36' E 140°07'0 0.0
2016-Aug-28 04:33N 35°36' E 140°07'0 0.0
2016-Aug-28 03:33N 35°36' E 140°07'3 2.5
2016-Aug-28 02:33N 35°33' E 140°06'3 2.5
2016-Aug-28 01:33N 35°36' E 140°07'0 0.0
2016-Aug-28 00:33N 35°36' E 140°07'0 0.0
2016-Aug-27 23:33N 35°36' E 140°07'1 1.0
2016-Aug-27 22:34N 35°35' E 140°06'3 3.0
2016-Aug-27 21:33N 35°35' E 140°03'2 2.5
2016-Aug-27 20:34N 35°35' E 140°06'1 1.0
2016-Aug-27 19:33N 35°36' E 140°07'0 0.0
2016-Aug-27 18:33N 35°36' E 140°07'0 0.0
2016-Aug-27 17:33N 35°36' E 140°07'0 0.0
2016-Aug-27 16:33N 35°36' E 140°07'0 0.0
2016-Aug-27 15:33N 35°36' E 140°07'0 0.0
2016-Aug-27 14:33N 35°36' E 140°07'0 0.0
2016-Aug-27 13:33N 35°36' E 140°07'0 0.0
2016-Aug-27 12:33N 35°36' E 140°07'0 0.0
2016-Aug-27 11:33N 35°36' E 140°07'0 0.0
2016-Aug-27 10:33N 35°36' E 140°07'0 0.0
2016-Aug-27 09:33N 35°36' E 140°07'0 0.0
2016-Aug-27 08:33N 35°36' E 140°07'0 0.0
2016-Aug-27 07:33N 35°36' E 140°07'3 0.9
2016-Aug-27 04:33N 35°33' E 140°05'1 0.7
2016-Aug-27 03:33N 35°33' E 140°05'2 1.8
2016-Aug-27 02:33N 35°34' E 140°03'1 0.5
2016-Aug-27 01:33N 35°34' E 140°03'1 0.8
2016-Aug-27 00:33N 35°35' E 140°03'2 2.4
2016-Aug-26 23:33N 35°36' E 140°05'1 1.1
2016-Aug-26 22:33N 35°35' E 140°04'8 7.4
2016-Aug-26 21:33N 35°32' E 139°56'4 4.4
2016-Aug-26 20:33N 35°34' E 140°01'5 5.2
2016-Aug-26 19:33N 35°36' E 140°07'0 0.0
2016-Aug-26 18:33N 35°36' E 140°07'0 0.0
2016-Aug-26 17:33N 35°36' E 140°07'0 0.0
2016-Aug-26 16:34N 35°36' E 140°07'0 0.0
2016-Aug-26 15:33N 35°36' E 140°07'0 0.0
2016-Aug-26 14:33N 35°36' E 140°07'0 0.0
2016-Aug-26 13:34N 35°36' E 140°07'0 0.0
2016-Aug-26 12:33N 35°36' E 140°07'0 0.0
2016-Aug-26 11:34N 35°36' E 140°07'0 0.0
2016-Aug-26 10:34N 35°36' E 140°07'0 0.0
2016-Aug-26 09:33N 35°36' E 140°07'0 0.0
2016-Aug-26 08:33N 35°36' E 140°07'0 0.0
2016-Aug-26 07:33N 35°36' E 140°07'1 0.9
2016-Aug-26 06:33N 35°35' E 140°06'6 3.1
2016-Aug-26 04:33N 35°31' E 140°00'3 3.1
2016-Aug-26 03:33N 35°33' E 139°57'8 8.3
2016-Aug-26 02:33N 35°36' E 140°07'0 0.0
2016-Aug-26 01:33N 35°36' E 140°07'0 0.0
2016-Aug-26 00:34N 35°36' E 140°07'0 0.0
2016-Aug-25 23:33N 35°36' E 140°07'1 1.4
2016-Aug-25 22:33N 35°36' E 140°05'3 3.4
2016-Aug-25 21:33N 35°34' E 140°02'4 4.3
2016-Aug-25 20:33N 35°36' E 140°07'0 0.0
2016-Aug-25 19:33N 35°36' E 140°07'0 0.0
2016-Aug-25 18:33N 35°36' E 140°07'0 0.0
2016-Aug-25 17:33N 35°36' E 140°07'0 0.0
2016-Aug-25 16:33N 35°36' E 140°07'0 0.0
2016-Aug-25 15:33N 35°36' E 140°07'0 0.0
2016-Aug-25 14:33N 35°36' E 140°07'0 0.0
2016-Aug-25 13:33N 35°36' E 140°07'0 0.0
2016-Aug-25 12:33N 35°36' E 140°07'0 0.0
2016-Aug-25 11:34N 35°36' E 140°07'0 0.0
2016-Aug-25 10:33N 35°36' E 140°07'0 0.0
2016-Aug-25 09:33N 35°36' E 140°07'1 1.0
2016-Aug-25 08:34N 35°35' E 140°06'1 0.9
2016-Aug-25 07:33N 35°36' E 140°06'9 8.4
2016-Aug-25 06:33N 35°32' E 139°56'1 0.4
2016-Aug-25 04:33N 35°31' E 139°56'1 0.5
2016-Aug-25 03:33N 35°30' E 139°56'2 2.1
2016-Aug-25 02:34N 35°29' E 139°54'1211.7
2016-Aug-25 01:33N 35°35' E 140°06'1 0.9
2016-Aug-25 00:33N 35°36' E 140°07'0 0.4
2016-Aug-24 23:33N 35°35' E 140°07'2 1.9
2016-Aug-24 22:33N 35°35' E 140°04'2 2.1
2016-Aug-24 21:34N 35°36' E 140°07'0 0.1
2016-Aug-24 20:33N 35°36' E 140°07'0 0.0
2016-Aug-24 19:33N 35°36' E 140°07'0 0.0
2016-Aug-24 18:33N 35°36' E 140°07'0 0.0
2016-Aug-24 17:31N 35°36' E 140°07'0 0.0
2016-Aug-24 16:33N 35°36' E 140°07'0 0.0
2016-Aug-24 15:33N 35°36' E 140°07'0 0.0
2016-Aug-24 14:34N 35°36' E 140°07'0 0.0
2016-Aug-24 13:33N 35°36' E 140°07'0 0.0
2016-Aug-24 12:33N 35°36' E 140°07'0 0.0
2016-Aug-24 11:33N 35°36' E 140°07'0 0.0
2016-Aug-24 10:34N 35°36' E 140°07'0 0.0
2016-Aug-24 09:33N 35°36' E 140°07'0 0.0
2016-Aug-24 08:34N 35°36' E 140°07'1010.1
2016-Aug-24 07:33N 35°28' E 139°58'0 0.0
2016-Aug-24 06:34N 35°28' E 139°58'4 1.9
2016-Aug-24 04:34N 35°29' E 139°54'0 0.0
2016-Aug-24 03:34N 35°29' E 139°54'0 0.0
2016-Aug-24 02:33N 35°29' E 139°54'0 0.0
2016-Aug-24 01:34N 35°29' E 139°54'0 0.0
2016-Aug-24 00:34N 35°29' E 139°54'4 3.8
2016-Aug-23 23:33N 35°28' E 139°58'4 3.9
2016-Aug-23 22:33N 35°31' E 140°02'4 4.2
2016-Aug-23 21:33N 35°35' E 140°04'3 2.5
2016-Aug-23 20:33N 35°36' E 140°07'0 0.0
2016-Aug-23 19:33N 35°36' E 140°07'0 0.0
2016-Aug-23 18:33N 35°36' E 140°07'0 0.0
2016-Aug-23 17:33N 35°36' E 140°07'0 0.0
2016-Aug-23 16:33N 35°36' E 140°07'0 0.0
2016-Aug-23 15:33N 35°36' E 140°07'0 0.0
2016-Aug-23 14:33N 35°36' E 140°07'0 0.0
2016-Aug-23 13:33N 35°36' E 140°07'0 0.0
2016-Aug-23 12:34N 35°36' E 140°07'0 0.0
2016-Aug-23 11:34N 35°36' E 140°07'0 0.0
2016-Aug-23 10:34N 35°36' E 140°07'0 0.0
2016-Aug-23 09:33N 35°36' E 140°07'4 4.3
2016-Aug-23 08:33N 35°36' E 140°02'4 4.4
2016-Aug-23 07:33N 35°40' E 139°59'8 7.8
2016-Aug-23 06:33N 35°36' E 140°07'0 0.0
2016-Aug-23 05:33N 35°36' E 140°07'6 6.0
2016-Aug-23 04:33N 35°31' E 140°02'0 0.1
2016-Aug-23 03:33N 35°31' E 140°02'1 0.7
2016-Aug-23 02:32N 35°32' E 140°01'0 0.0
2016-Aug-23 01:33N 35°32' E 140°01'0 0.0
2016-Aug-23 00:33N 35°32' E 140°01'4 4.1
2016-Aug-22 23:33N 35°35' E 140°04'1 1.5
2016-Aug-22 22:33N 35°35' E 140°06'2 1.6
2016-Aug-22 21:33N 35°35' E 140°04'2 2.4
2016-Aug-22 20:34N 35°36' E 140°07'0 0.1
2016-Aug-22 19:33N 35°36' E 140°07'0 0.0
2016-Aug-22 18:32N 35°36' E 140°07'0 0.0
2016-Aug-22 17:33N 35°36' E 140°07'0 0.0
2016-Aug-22 16:33N 35°36' E 140°07'0 0.0
2016-Aug-22 15:33N 35°36' E 140°07'0 0.0
2016-Aug-22 14:33N 35°36' E 140°07'0 0.0
2016-Aug-22 13:33N 35°36' E 140°07'0 0.0
2016-Aug-22 12:33N 35°36' E 140°07'0 0.0
2016-Aug-22 11:33N 35°36' E 140°07'0 0.0
2016-Aug-22 10:33N 35°36' E 140°07'0 0.0
2016-Aug-22 09:33N 35°36' E 140°07'0 0.0
2016-Aug-22 08:33N 35°36' E 140°07'0 0.0
2016-Aug-22 07:33N 35°36' E 140°07'0 0.0
2016-Aug-22 06:34N 35°36' E 140°07'0 0.0
2016-Aug-22 05:33N 35°36' E 140°07'2 1.8
2016-Aug-22 04:33N 35°37' E 140°05'2 1.8
2016-Aug-22 03:34N 35°35' E 140°07'0 0.4
2016-Aug-22 02:32N 35°36' E 140°07'0 0.0
2016-Aug-22 01:33N 35°36' E 140°07'0 0.0
2016-Aug-22 00:33N 35°36' E 140°07'0 0.1
2016-Aug-21 23:34N 35°36' E 140°07'0 0.0
2016-Aug-21 22:33N 35°36' E 140°07'0 0.0
2016-Aug-21 21:33N 35°36' E 140°07'0 0.0
2016-Aug-21 20:33N 35°36' E 140°07'0 0.0
2016-Aug-21 19:33N 35°36' E 140°07'0 0.0
2016-Aug-21 18:33N 35°36' E 140°07'0 0.0
2016-Aug-21 17:33N 35°36' E 140°07'0 0.0
2016-Aug-21 16:33N 35°36' E 140°07'0 0.0
2016-Aug-21 15:33N 35°36' E 140°07'0 0.0
2016-Aug-21 14:34N 35°36' E 140°07'0 0.0
2016-Aug-21 13:34N 35°36' E 140°07'0 0.0
2016-Aug-21 12:33N 35°36' E 140°07'0 0.0
2016-Aug-21 11:33N 35°36' E 140°07'0 0.0
2016-Aug-21 10:33N 35°36' E 140°07'2 1.7
2016-Aug-21 09:33N 35°35' E 140°05'8 7.7
2016-Aug-21 08:33N 35°32' E 139°56'6 6.4
2016-Aug-21 07:33N 35°35' E 140°03'2 2.5
2016-Aug-21 06:33N 35°35' E 140°06'1 0.9
2016-Aug-21 05:33N 35°36' E 140°07'0 0.0
2016-Aug-21 04:33N 35°36' E 140°07'0 0.0
2016-Aug-21 03:33N 35°36' E 140°07'0 0.0
2016-Aug-21 02:33N 35°36' E 140°07'0 0.0
2016-Aug-21 01:34N 35°36' E 140°07'0 0.0
2016-Aug-21 00:33N 35°36' E 140°07'0 0.0
2016-Aug-20 23:33N 35°36' E 140°07'1 0.9
2016-Aug-20 22:33N 35°35' E 140°06'6 6.5
2016-Aug-20 21:33N 35°33' E 139°59'6 6.3
2016-Aug-20 20:33N 35°35' E 140°06'1 1.0
2016-Aug-20 19:33N 35°36' E 140°07'0 0.0
2016-Aug-20 18:33N 35°36' E 140°07'0 0.0
2016-Aug-20 17:34N 35°36' E 140°07'0 0.0
2016-Aug-20 16:33N 35°36' E 140°07'0 0.0
2016-Aug-20 15:33N 35°36' E 140°07'0 0.0
2016-Aug-20 14:34N 35°36' E 140°07'0 0.0
2016-Aug-20 13:33N 35°36' E 140°07'0 0.0
2016-Aug-20 12:33N 35°36' E 140°07'0 0.0
2016-Aug-20 11:33N 35°36' E 140°07'0 0.0
2016-Aug-20 10:33N 35°36' E 140°07'0 0.0
2016-Aug-20 09:33N 35°36' E 140°07'0 0.0
2016-Aug-20 08:33N 35°36' E 140°07'7 7.4
2016-Aug-20 07:33N 35°30' E 140°01'0 0.1
2016-Aug-20 06:33N 35°30' E 140°01'2 1.9
2016-Aug-20 05:33N 35°31' E 139°60'0 0.4
2016-Aug-20 04:33N 35°31' E 139°60'2 2.2
2016-Aug-20 03:33N 35°32' E 140°02'4 4.4
2016-Aug-20 02:34N 35°35' E 140°06'2 2.0
2016-Aug-20 01:33N 35°35' E 140°04'1 1.1
2016-Aug-20 00:33N 35°35' E 140°03'0 0.0
2016-Aug-19 23:33N 35°35' E 140°03'3 3.4
2016-Aug-19 22:33N 35°36' E 140°07'0 0.0
2016-Aug-19 21:33N 35°36' E 140°07'0 0.0
2016-Aug-19 20:33N 35°36' E 140°07'0 0.0
2016-Aug-19 19:33N 35°36' E 140°07'0 0.0
2016-Aug-19 18:33N 35°36' E 140°07'0 0.0
2016-Aug-19 17:33N 35°36' E 140°07'0 0.0
2016-Aug-19 16:34N 35°36' E 140°07'0 0.0
2016-Aug-19 15:34N 35°36' E 140°07'0 0.0
2016-Aug-19 14:33N 35°36' E 140°07'0 0.0
2016-Aug-19 13:33N 35°36' E 140°07'0 0.0
2016-Aug-19 12:33N 35°36' E 140°07'0 0.0
2016-Aug-19 11:34N 35°36' E 140°07'0 0.0
2016-Aug-19 10:33N 35°36' E 140°07'0 0.0
2016-Aug-19 09:34N 35°36' E 140°07'2 1.7
2016-Aug-19 08:32N 35°36' E 140°05'2 1.8
2016-Aug-19 07:34N 35°36' E 140°07'0 0.0
2016-Aug-19 06:33N 35°36' E 140°07'6 6.0
2016-Aug-19 05:33N 35°31' E 140°02'0 0.1
2016-Aug-19 04:33N 35°31' E 140°02'0 0.3
2016-Aug-19 03:34N 35°31' E 140°02'4 3.6
2016-Aug-19 02:33N 35°34' E 139°59'7 6.6
2016-Aug-19 01:33N 35°36' E 140°07'0 0.0
2016-Aug-19 00:33N 35°36' E 140°07'0 0.0
2016-Aug-18 23:33N 35°36' E 140°07'0 0.0
2016-Aug-18 22:33N 35°36' E 140°07'0 0.0
2016-Aug-18 21:33N 35°36' E 140°07'0 0.0
2016-Aug-18 20:34N 35°36' E 140°07'0 0.0
2016-Aug-18 19:33N 35°36' E 140°07'0 0.0
2016-Aug-18 18:33N 35°36' E 140°07'0 0.0
2016-Aug-18 17:33N 35°36' E 140°07'0 0.0
2016-Aug-18 16:33N 35°36' E 140°07'0 0.0
2016-Aug-18 15:34N 35°36' E 140°07'0 0.0
2016-Aug-18 14:33N 35°36' E 140°07'0 0.0
2016-Aug-18 13:34N 35°36' E 140°07'0 0.0
2016-Aug-18 12:34N 35°36' E 140°07'0 0.0
2016-Aug-18 11:34N 35°36' E 140°07'  
Track history (hours):
 
Tides and Currents Weather Stations Pressure Air Temp Water Temp Dewpoint Dewpoint Depression Visibility Wind Speed Wind Dir Waves Ship Positions

Kitanomaru

Last reported at 2016-Aug-28 11:33 UTC. Time now 2016-Aug-28 12:12 UTC.
Position N 35°36' E 140°07'.

Length 39 m; draft 4 m.

Type: Tug. MMSI: 431000773.

Date/timePositionNaut miles runAvg speedWind from/ knotsBaromVisibWave heightAir tempDewpointWater temp
2016-Aug-28 11:33N 35°36' E 140°07'0 0.0
2016-Aug-28 10:33N 35°36' E 140°07'0 0.0
2016-Aug-28 09:33N 35°36' E 140°07'0 0.0
2016-Aug-28 08:33N 35°36' E 140°07'0 0.0
2016-Aug-28 07:33N 35°36' E 140°07'0 0.0
2016-Aug-28 06:33N 35°36' E 140°07'0 0.0
2016-Aug-28 05:33N 35°36' E 140°07'0 0.0
2016-Aug-28 04:33N 35°36' E 140°07'0 0.0
2016-Aug-28 03:33N 35°36' E 140°07'3 2.5
2016-Aug-28 02:33N 35°33' E 140°06'3 2.5
2016-Aug-28 01:33N 35°36' E 140°07'0 0.0
2016-Aug-28 00:33N 35°36' E 140°07'0 0.0
2016-Aug-27 23:33N 35°36' E 140°07'1 1.0
2016-Aug-27 22:34N 35°35' E 140°06'3 3.0
2016-Aug-27 21:33N 35°35' E 140°03'2 2.5
2016-Aug-27 20:34N 35°35' E 140°06'1 1.0
2016-Aug-27 19:33N 35°36' E 140°07'0 0.0
2016-Aug-27 18:33N 35°36' E 140°07'0 0.0
2016-Aug-27 17:33N 35°36' E 140°07'0 0.0
2016-Aug-27 16:33N 35°36' E 140°07'0 0.0
2016-Aug-27 15:33N 35°36' E 140°07'0 0.0
2016-Aug-27 14:33N 35°36' E 140°07'0 0.0
2016-Aug-27 13:33N 35°36' E 140°07'0 0.0
2016-Aug-27 12:33N 35°36' E 140°07'0 0.0
2016-Aug-27 11:33N 35°36' E 140°07'0 0.0
2016-Aug-27 10:33N 35°36' E 140°07'0 0.0
2016-Aug-27 09:33N 35°36' E 140°07'0 0.0
2016-Aug-27 08:33N 35°36' E 140°07'0 0.0
2016-Aug-27 07:33N 35°36' E 140°07'3 0.9
2016-Aug-27 04:33N 35°33' E 140°05'1 0.7
2016-Aug-27 03:33N 35°33' E 140°05'2 1.8
2016-Aug-27 02:33N 35°34' E 140°03'1 0.5
2016-Aug-27 01:33N 35°34' E 140°03'1 0.8
2016-Aug-27 00:33N 35°35' E 140°03'2 2.4
2016-Aug-26 23:33N 35°36' E 140°05'1 1.1
2016-Aug-26 22:33N 35°35' E 140°04'8 7.4
2016-Aug-26 21:33N 35°32' E 139°56'4 4.4
2016-Aug-26 20:33N 35°34' E 140°01'5 5.2
2016-Aug-26 19:33N 35°36' E 140°07'0 0.0
2016-Aug-26 18:33N 35°36' E 140°07'0 0.0
2016-Aug-26 17:33N 35°36' E 140°07'0 0.0
2016-Aug-26 16:34N 35°36' E 140°07'0 0.0
2016-Aug-26 15:33N 35°36' E 140°07'0 0.0
2016-Aug-26 14:33N 35°36' E 140°07'0 0.0
2016-Aug-26 13:34N 35°36' E 140°07'0 0.0
2016-Aug-26 12:33N 35°36' E 140°07'0 0.0
2016-Aug-26 11:34N 35°36' E 140°07'0 0.0
2016-Aug-26 10:34N 35°36' E 140°07'0 0.0
2016-Aug-26 09:33N 35°36' E 140°07'0 0.0
2016-Aug-26 08:33N 35°36' E 140°07'0 0.0
2016-Aug-26 07:33N 35°36' E 140°07'1 0.9
2016-Aug-26 06:33N 35°35' E 140°06'6 3.1
2016-Aug-26 04:33N 35°31' E 140°00'3 3.1
2016-Aug-26 03:33N 35°33' E 139°57'8 8.3
2016-Aug-26 02:33N 35°36' E 140°07'0 0.0
2016-Aug-26 01:33N 35°36' E 140°07'0 0.0
2016-Aug-26 00:34N 35°36' E 140°07'0 0.0
2016-Aug-25 23:33N 35°36' E 140°07'1 1.4
2016-Aug-25 22:33N 35°36' E 140°05'3 3.4
2016-Aug-25 21:33N 35°34' E 140°02'4 4.3
2016-Aug-25 20:33N 35°36' E 140°07'0 0.0
2016-Aug-25 19:33N 35°36' E 140°07'0 0.0
2016-Aug-25 18:33N 35°36' E 140°07'0 0.0
2016-Aug-25 17:33N 35°36' E 140°07'0 0.0
2016-Aug-25 16:33N 35°36' E 140°07'0 0.0
2016-Aug-25 15:33N 35°36' E 140°07'0 0.0
2016-Aug-25 14:33N 35°36' E 140°07'0 0.0
2016-Aug-25 13:33N 35°36' E 140°07'0 0.0
2016-Aug-25 12:33N 35°36' E 140°07'0 0.0
2016-Aug-25 11:34N 35°36' E 140°07'0 0.0
2016-Aug-25 10:33N 35°36' E 140°07'0 0.0
2016-Aug-25 09:33N 35°36' E 140°07'1 1.0
2016-Aug-25 08:34N 35°35' E 140°06'1 0.9
2016-Aug-25 07:33N 35°36' E 140°06'9 8.4
2016-Aug-25 06:33N 35°32' E 139°56'1 0.4
2016-Aug-25 04:33N 35°31' E 139°56'1 0.5
2016-Aug-25 03:33N 35°30' E 139°56'2 2.1
2016-Aug-25 02:34N 35°29' E 139°54'1211.7
2016-Aug-25 01:33N 35°35' E 140°06'1 0.9
2016-Aug-25 00:33N 35°36' E 140°07'0 0.4
2016-Aug-24 23:33N 35°35' E 140°07'2 1.9
2016-Aug-24 22:33N 35°35' E 140°04'2 2.1
2016-Aug-24 21:34N 35°36' E 140°07'0 0.1
2016-Aug-24 20:33N 35°36' E 140°07'0 0.0
2016-Aug-24 19:33N 35°36' E 140°07'0 0.0
2016-Aug-24 18:33N 35°36' E 140°07'0 0.0
2016-Aug-24 17:31N 35°36' E 140°07'0 0.0
2016-Aug-24 16:33N 35°36' E 140°07'0 0.0
2016-Aug-24 15:33N 35°36' E 140°07'0 0.0
2016-Aug-24 14:34N 35°36' E 140°07'0 0.0
2016-Aug-24 13:33N 35°36' E 140°07'0 0.0
2016-Aug-24 12:33N 35°36' E 140°07'0 0.0
2016-Aug-24 11:33N 35°36' E 140°07'0 0.0
2016-Aug-24 10:34N 35°36' E 140°07'0 0.0
2016-Aug-24 09:33N 35°36' E 140°07'0 0.0
2016-Aug-24 08:34N 35°36' E 140°07'1010.1
2016-Aug-24 07:33N 35°28' E 139°58'0 0.0
2016-Aug-24 06:34N 35°28' E 139°58'4 1.9
2016-Aug-24 04:34N 35°29' E 139°54'0 0.0
2016-Aug-24 03:34N 35°29' E 139°54'0 0.0
2016-Aug-24 02:33N 35°29' E 139°54'0 0.0
2016-Aug-24 01:34N 35°29' E 139°54'0 0.0
2016-Aug-24 00:34N 35°29' E 139°54'4 3.8
2016-Aug-23 23:33N 35°28' E 139°58'4 3.9
2016-Aug-23 22:33N 35°31' E 140°02'4 4.2
2016-Aug-23 21:33N 35°35' E 140°04'3 2.5
2016-Aug-23 20:33N 35°36' E 140°07'0 0.0
2016-Aug-23 19:33N 35°36' E 140°07'0 0.0
2016-Aug-23 18:33N 35°36' E 140°07'0 0.0
2016-Aug-23 17:33N 35°36' E 140°07'0 0.0
2016-Aug-23 16:33N 35°36' E 140°07'0 0.0
2016-Aug-23 15:33N 35°36' E 140°07'0 0.0
2016-Aug-23 14:33N 35°36' E 140°07'0 0.0
2016-Aug-23 13:33N 35°36' E 140°07'0 0.0
2016-Aug-23 12:34N 35°36' E 140°07'0 0.0
2016-Aug-23 11:34N 35°36' E 140°07'0 0.0
2016-Aug-23 10:34N 35°36' E 140°07'0 0.0
2016-Aug-23 09:33N 35°36' E 140°07'4 4.3
2016-Aug-23 08:33N 35°36' E 140°02'4 4.4
2016-Aug-23 07:33N 35°40' E 139°59'8 7.8
2016-Aug-23 06:33N 35°36' E 140°07'0 0.0
2016-Aug-23 05:33N 35°36' E 140°07'6 6.0
2016-Aug-23 04:33N 35°31' E 140°02'0 0.1
2016-Aug-23 03:33N 35°31' E 140°02'1 0.7
2016-Aug-23 02:32N 35°32' E 140°01'0 0.0
2016-Aug-23 01:33N 35°32' E 140°01'0 0.0
2016-Aug-23 00:33N 35°32' E 140°01'4 4.1
2016-Aug-22 23:33N 35°35' E 140°04'1 1.5
2016-Aug-22 22:33N 35°35' E 140°06'2 1.6
2016-Aug-22 21:33N 35°35' E 140°04'2 2.4
2016-Aug-22 20:34N 35°36' E 140°07'0 0.1
2016-Aug-22 19:33N 35°36' E 140°07'0 0.0
2016-Aug-22 18:32N 35°36' E 140°07'0 0.0
2016-Aug-22 17:33N 35°36' E 140°07'0 0.0
2016-Aug-22 16:33N 35°36' E 140°07'0 0.0
2016-Aug-22 15:33N 35°36' E 140°07'0 0.0
2016-Aug-22 14:33N 35°36' E 140°07'0 0.0
2016-Aug-22 13:33N 35°36' E 140°07'0 0.0
2016-Aug-22 12:33N 35°36' E 140°07'0 0.0
2016-Aug-22 11:33N 35°36' E 140°07'0 0.0
2016-Aug-22 10:33N 35°36' E 140°07'0 0.0
2016-Aug-22 09:33N 35°36' E 140°07'0 0.0
2016-Aug-22 08:33N 35°36' E 140°07'0 0.0
2016-Aug-22 07:33N 35°36' E 140°07'0 0.0
2016-Aug-22 06:34N 35°36' E 140°07'0 0.0
2016-Aug-22 05:33N 35°36' E 140°07'2 1.8
2016-Aug-22 04:33N 35°37' E 140°05'2 1.8
2016-Aug-22 03:34N 35°35' E 140°07'0 0.4
2016-Aug-22 02:32N 35°36' E 140°07'0 0.0
2016-Aug-22 01:33N 35°36' E 140°07'0 0.0
2016-Aug-22 00:33N 35°36' E 140°07'0 0.1
2016-Aug-21 23:34N 35°36' E 140°07'0 0.0
2016-Aug-21 22:33N 35°36' E 140°07'0 0.0
2016-Aug-21 21:33N 35°36' E 140°07'0 0.0
2016-Aug-21 20:33N 35°36' E 140°07'0 0.0
2016-Aug-21 19:33N 35°36' E 140°07'0 0.0
2016-Aug-21 18:33N 35°36' E 140°07'0 0.0
2016-Aug-21 17:33N 35°36' E 140°07'0 0.0
2016-Aug-21 16:33N 35°36' E 140°07'0 0.0
2016-Aug-21 15:33N 35°36' E 140°07'0 0.0
2016-Aug-21 14:34N 35°36' E 140°07'0 0.0
2016-Aug-21 13:34N 35°36' E 140°07'0 0.0
2016-Aug-21 12:33N 35°36' E 140°07'0 0.0
2016-Aug-21 11:33N 35°36' E 140°07'0 0.0
2016-Aug-21 10:33N 35°36' E 140°07'2 1.7
2016-Aug-21 09:33N 35°35' E 140°05'8 7.7
2016-Aug-21 08:33N 35°32' E 139°56'6 6.4
2016-Aug-21 07:33N 35°35' E 140°03'2 2.5
2016-Aug-21 06:33N 35°35' E 140°06'1 0.9
2016-Aug-21 05:33N 35°36' E 140°07'0 0.0
2016-Aug-21 04:33N 35°36' E 140°07'0 0.0
2016-Aug-21 03:33N 35°36' E 140°07'0 0.0
2016-Aug-21 02:33N 35°36' E 140°07'0 0.0
2016-Aug-21 01:34N 35°36' E 140°07'0 0.0
2016-Aug-21 00:33N 35°36' E 140°07'0 0.0
2016-Aug-20 23:33N 35°36' E 140°07'1 0.9
2016-Aug-20 22:33N 35°35' E 140°06'6 6.5
2016-Aug-20 21:33N 35°33' E 139°59'6 6.3
2016-Aug-20 20:33N 35°35' E 140°06'1 1.0
2016-Aug-20 19:33N 35°36' E 140°07'0 0.0
2016-Aug-20 18:33N 35°36' E 140°07'0 0.0
2016-Aug-20 17:34N 35°36' E 140°07'0 0.0
2016-Aug-20 16:33N 35°36' E 140°07'0 0.0
2016-Aug-20 15:33N 35°36' E 140°07'0 0.0
2016-Aug-20 14:34N 35°36' E 140°07'0 0.0
2016-Aug-20 13:33N 35°36' E 140°07'0 0.0
2016-Aug-20 12:33N 35°36' E 140°07'0 0.0
2016-Aug-20 11:33N 35°36' E 140°07'0 0.0
2016-Aug-20 10:33N 35°36' E 140°07'0 0.0
2016-Aug-20 09:33N 35°36' E 140°07'0 0.0
2016-Aug-20 08:33N 35°36' E 140°07'7 7.4
2016-Aug-20 07:33N 35°30' E 140°01'0 0.1
2016-Aug-20 06:33N 35°30' E 140°01'2 1.9
2016-Aug-20 05:33N 35°31' E 139°60'0 0.4
2016-Aug-20 04:33N 35°31' E 139°60'2 2.2
2016-Aug-20 03:33N 35°32' E 140°02'4 4.4
2016-Aug-20 02:34N 35°35' E 140°06'2 2.0
2016-Aug-20 01:33N 35°35' E 140°04'1 1.1
2016-Aug-20 00:33N 35°35' E 140°03'0 0.0
2016-Aug-19 23:33N 35°35' E 140°03'3 3.4
2016-Aug-19 22:33N 35°36' E 140°07'0 0.0
2016-Aug-19 21:33N 35°36' E 140°07'0 0.0
2016-Aug-19 20:33N 35°36' E 140°07'0 0.0
2016-Aug-19 19:33N 35°36' E 140°07'0 0.0
2016-Aug-19 18:33N 35°36' E 140°07'0 0.0
2016-Aug-19 17:33N 35°36' E 140°07'0 0.0
2016-Aug-19 16:34N 35°36' E 140°07'0 0.0
2016-Aug-19 15:34N 35°36' E 140°07'0 0.0
2016-Aug-19 14:33N 35°36' E 140°07'0 0.0
2016-Aug-19 13:33N 35°36' E 140°07'0 0.0
2016-Aug-19 12:33N 35°36' E 140°07'0 0.0
2016-Aug-19 11:34N 35°36' E 140°07'0 0.0
2016-Aug-19 10:33N 35°36' E 140°07'0 0.0
2016-Aug-19 09:34N 35°36' E 140°07'2 1.7
2016-Aug-19 08:32N 35°36' E 140°05'2 1.8
2016-Aug-19 07:34N 35°36' E 140°07'0 0.0
2016-Aug-19 06:33N 35°36' E 140°07'6 6.0
2016-Aug-19 05:33N 35°31' E 140°02'0 0.1
2016-Aug-19 04:33N 35°31' E 140°02'0 0.3
2016-Aug-19 03:34N 35°31' E 140°02'4 3.6
2016-Aug-19 02:33N 35°34' E 139°59'7 6.6
2016-Aug-19 01:33N 35°36' E 140°07'0 0.0
2016-Aug-19 00:33N 35°36' E 140°07'0 0.0
2016-Aug-18 23:33N 35°36' E 140°07'0 0.0
2016-Aug-18 22:33N 35°36' E 140°07'0 0.0
2016-Aug-18 21:33N 35°36' E 140°07'0 0.0
2016-Aug-18 20:34N 35°36' E 140°07'0 0.0
2016-Aug-18 19:33N 35°36' E 140°07'0 0.0
2016-Aug-18 18:33N 35°36' E 140°07'0 0.0
2016-Aug-18 17:33N 35°36' E 140°07'0 0.0
2016-Aug-18 16:33N 35°36' E 140°07'0 0.0
2016-Aug-18 15:34N 35°36' E 140°07'0 0.0
2016-Aug-18 14:33N 35°36' E 140°07'0 0.0
2016-Aug-18 13:34N 35°36' E 140°07'0 0.0
2016-Aug-18 12:34N 35°36' E 140°07'0 0.0
2016-Aug-18 11:34N 35°36' E 140°07'  

Dump ship's entire track history